sensor_id;sensor_type;location;lat;lon;timestamp;P1;durP1;ratioP1;P2;durP2;ratioP2
35981;SDS011;22058;0.000;0.000;2023-03-14T00:00:11;14.40;;;2.25;;
35981;SDS011;22058;0.000;0.000;2023-03-14T00:02:37;8.18;;;2.92;;
35981;SDS011;22058;0.000;0.000;2023-03-14T00:05:04;7.60;;;2.65;;
35981;SDS011;22058;0.000;0.000;2023-03-14T00:07:35;4.82;;;2.38;;
35981;SDS011;22058;0.000;0.000;2023-03-14T00:10:03;6.80;;;2.53;;
35981;SDS011;22058;0.000;0.000;2023-03-14T00:12:29;11.00;;;3.30;;
35981;SDS011;22058;0.000;0.000;2023-03-14T00:14:56;13.88;;;2.83;;
35981;SDS011;22058;0.000;0.000;2023-03-14T00:17:22;8.50;;;2.67;;
35981;SDS011;22058;0.000;0.000;2023-03-14T00:19:48;10.23;;;2.22;;
35981;SDS011;22058;0.000;0.000;2023-03-14T00:22:17;12.23;;;2.30;;
35981;SDS011;22058;0.000;0.000;2023-03-14T00:24:43;6.38;;;2.20;;
35981;SDS011;22058;0.000;0.000;2023-03-14T00:27:10;16.08;;;2.97;;
35981;SDS011;22058;0.000;0.000;2023-03-14T00:29:36;9.02;;;2.40;;
35981;SDS011;22058;0.000;0.000;2023-03-14T00:32:02;6.80;;;2.28;;
35981;SDS011;22058;0.000;0.000;2023-03-14T00:34:29;7.35;;;2.90;;
35981;SDS011;22058;0.000;0.000;2023-03-14T00:36:55;8.52;;;2.63;;
35981;SDS011;22058;0.000;0.000;2023-03-14T00:39:21;10.45;;;2.53;;
35981;SDS011;22058;0.000;0.000;2023-03-14T00:41:47;7.45;;;2.50;;
35981;SDS011;22058;0.000;0.000;2023-03-14T00:44:13;7.20;;;1.70;;
35981;SDS011;22058;0.000;0.000;2023-03-14T00:46:39;9.75;;;2.70;;
35981;SDS011;22058;0.000;0.000;2023-03-14T00:49:05;8.10;;;3.22;;
35981;SDS011;22058;0.000;0.000;2023-03-14T00:51:32;23.88;;;2.50;;
35981;SDS011;22058;0.000;0.000;2023-03-14T00:53:59;7.38;;;2.88;;
35981;SDS011;22058;0.000;0.000;2023-03-14T00:56:25;7.18;;;2.17;;
35981;SDS011;22058;0.000;0.000;2023-03-14T00:58:54;8.82;;;2.17;;
35981;SDS011;22058;0.000;0.000;2023-03-14T01:01:21;7.25;;;2.78;;
35981;SDS011;22058;0.000;0.000;2023-03-14T01:03:47;8.90;;;2.63;;
35981;SDS011;22058;0.000;0.000;2023-03-14T01:06:17;7.15;;;3.13;;
35981;SDS011;22058;0.000;0.000;2023-03-14T01:08:44;6.82;;;2.10;;
35981;SDS011;22058;0.000;0.000;2023-03-14T01:11:20;4.35;;;2.47;;
35981;SDS011;22058;0.000;0.000;2023-03-14T01:13:47;13.88;;;2.72;;
35981;SDS011;22058;0.000;0.000;2023-03-14T01:16:13;9.60;;;2.80;;
35981;SDS011;22058;0.000;0.000;2023-03-14T01:18:40;6.38;;;2.13;;
35981;SDS011;22058;0.000;0.000;2023-03-14T01:21:15;7.00;;;2.22;;
35981;SDS011;22058;0.000;0.000;2023-03-14T01:23:42;9.50;;;2.95;;
35981;SDS011;22058;0.000;0.000;2023-03-14T01:26:12;5.13;;;3.17;;
35981;SDS011;22058;0.000;0.000;2023-03-14T01:28:39;9.43;;;2.80;;
35981;SDS011;22058;0.000;0.000;2023-03-14T01:31:05;8.07;;;2.83;;
35981;SDS011;22058;0.000;0.000;2023-03-14T01:33:32;10.77;;;3.90;;
35981;SDS011;22058;0.000;0.000;2023-03-14T01:35:58;6.00;;;2.13;;
35981;SDS011;22058;0.000;0.000;2023-03-14T01:38:27;9.77;;;3.40;;
35981;SDS011;22058;0.000;0.000;2023-03-14T01:40:54;7.88;;;2.45;;
35981;SDS011;22058;0.000;0.000;2023-03-14T01:43:20;4.28;;;3.25;;
35981;SDS011;22058;0.000;0.000;2023-03-14T01:48:32;7.40;;;2.55;;
35981;SDS011;22058;0.000;0.000;2023-03-14T01:51:01;11.00;;;2.67;;
35981;SDS011;22058;0.000;0.000;2023-03-14T01:53:28;9.30;;;2.20;;
35981;SDS011;22058;0.000;0.000;2023-03-14T01:55:55;3.83;;;1.95;;
35981;SDS011;22058;0.000;0.000;2023-03-14T01:58:21;3.83;;;2.20;;
35981;SDS011;22058;0.000;0.000;2023-03-14T02:00:48;5.53;;;2.47;;
35981;SDS011;22058;0.000;0.000;2023-03-14T02:03:16;5.53;;;2.30;;
35981;SDS011;22058;0.000;0.000;2023-03-14T02:05:43;7.57;;;2.75;;
35981;SDS011;22058;0.000;0.000;2023-03-14T02:08:13;4.57;;;2.40;;
35981;SDS011;22058;0.000;0.000;2023-03-14T02:10:48;9.82;;;2.63;;
35981;SDS011;22058;0.000;0.000;2023-03-14T02:13:16;5.43;;;2.20;;
35981;SDS011;22058;0.000;0.000;2023-03-14T02:15:43;7.88;;;3.08;;
35981;SDS011;22058;0.000;0.000;2023-03-14T02:18:09;7.60;;;2.85;;
35981;SDS011;22058;0.000;0.000;2023-03-14T02:20:44;5.25;;;2.28;;
35981;SDS011;22058;0.000;0.000;2023-03-14T02:23:12;6.28;;;2.03;;
35981;SDS011;22058;0.000;0.000;2023-03-14T02:25:42;7.00;;;2.40;;
35981;SDS011;22058;0.000;0.000;2023-03-14T02:28:09;4.18;;;2.88;;
35981;SDS011;22058;0.000;0.000;2023-03-14T02:30:36;3.63;;;2.22;;
35981;SDS011;22058;0.000;0.000;2023-03-14T02:33:09;5.22;;;2.03;;
35981;SDS011;22058;0.000;0.000;2023-03-14T02:35:46;6.95;;;1.83;;
35981;SDS011;22058;0.000;0.000;2023-03-14T02:38:15;4.32;;;2.50;;
35981;SDS011;22058;0.000;0.000;2023-03-14T02:40:43;5.33;;;2.27;;
35981;SDS011;22058;0.000;0.000;2023-03-14T02:43:09;4.03;;;2.33;;
35981;SDS011;22058;0.000;0.000;2023-03-14T02:45:39;5.72;;;2.13;;
35981;SDS011;22058;0.000;0.000;2023-03-14T02:48:07;5.22;;;2.17;;
35981;SDS011;22058;0.000;0.000;2023-03-14T02:50:34;3.60;;;1.73;;
35981;SDS011;22058;0.000;0.000;2023-03-14T02:53:00;7.82;;;1.83;;
35981;SDS011;22058;0.000;0.000;2023-03-14T02:55:27;3.00;;;2.10;;
35981;SDS011;22058;0.000;0.000;2023-03-14T02:57:53;3.60;;;2.63;;
35981;SDS011;22058;0.000;0.000;2023-03-14T03:00:19;7.53;;;2.28;;
35981;SDS011;22058;0.000;0.000;2023-03-14T03:02:46;3.20;;;1.98;;
35981;SDS011;22058;0.000;0.000;2023-03-14T03:05:12;6.38;;;2.08;;
35981;SDS011;22058;0.000;0.000;2023-03-14T03:07:38;5.55;;;2.15;;
35981;SDS011;22058;0.000;0.000;2023-03-14T03:10:04;3.50;;;1.98;;
35981;SDS011;22058;0.000;0.000;2023-03-14T03:12:31;3.03;;;1.58;;
35981;SDS011;22058;0.000;0.000;2023-03-14T03:14:57;2.90;;;2.25;;
35981;SDS011;22058;0.000;0.000;2023-03-14T03:17:23;5.32;;;2.13;;
35981;SDS011;22058;0.000;0.000;2023-03-14T03:19:49;3.67;;;1.88;;
35981;SDS011;22058;0.000;0.000;2023-03-14T03:22:15;7.47;;;3.33;;
35981;SDS011;22058;0.000;0.000;2023-03-14T03:24:41;6.43;;;3.72;;
35981;SDS011;22058;0.000;0.000;2023-03-14T03:27:09;6.03;;;2.30;;
35981;SDS011;22058;0.000;0.000;2023-03-14T03:29:35;4.70;;;2.95;;
35981;SDS011;22058;0.000;0.000;2023-03-14T03:32:01;5.30;;;2.42;;
35981;SDS011;22058;0.000;0.000;2023-03-14T03:34:28;4.25;;;1.85;;
35981;SDS011;22058;0.000;0.000;2023-03-14T03:36:57;2.92;;;2.13;;
35981;SDS011;22058;0.000;0.000;2023-03-14T03:39:23;5.65;;;2.38;;
35981;SDS011;22058;0.000;0.000;2023-03-14T03:41:49;5.22;;;2.17;;
35981;SDS011;22058;0.000;0.000;2023-03-14T03:44:15;3.90;;;1.70;;
35981;SDS011;22058;0.000;0.000;2023-03-14T03:46:42;7.38;;;3.97;;
35981;SDS011;22058;0.000;0.000;2023-03-14T03:49:08;3.22;;;2.17;;
35981;SDS011;22058;0.000;0.000;2023-03-14T03:51:34;5.85;;;2.20;;
35981;SDS011;22058;0.000;0.000;2023-03-14T03:54:00;5.03;;;2.17;;
35981;SDS011;22058;0.000;0.000;2023-03-14T03:56:26;3.75;;;2.58;;
35981;SDS011;22058;0.000;0.000;2023-03-14T03:58:52;3.92;;;2.22;;
35981;SDS011;22058;0.000;0.000;2023-03-14T04:01:18;3.20;;;1.90;;
35981;SDS011;22058;0.000;0.000;2023-03-14T04:03:45;3.35;;;2.05;;
35981;SDS011;22058;0.000;0.000;2023-03-14T04:06:11;3.53;;;1.95;;
35981;SDS011;22058;0.000;0.000;2023-03-14T04:08:38;2.22;;;1.45;;
35981;SDS011;22058;0.000;0.000;2023-03-14T04:11:06;4.63;;;2.55;;
35981;SDS011;22058;0.000;0.000;2023-03-14T04:13:32;5.03;;;2.00;;
35981;SDS011;22058;0.000;0.000;2023-03-14T04:15:58;5.30;;;2.03;;
35981;SDS011;22058;0.000;0.000;2023-03-14T04:18:25;5.07;;;2.17;;
35981;SDS011;22058;0.000;0.000;2023-03-14T04:20:51;4.00;;;1.95;;
35981;SDS011;22058;0.000;0.000;2023-03-14T04:23:17;4.57;;;1.83;;
35981;SDS011;22058;0.000;0.000;2023-03-14T04:25:44;3.20;;;1.75;;
35981;SDS011;22058;0.000;0.000;2023-03-14T04:28:10;4.18;;;2.25;;
35981;SDS011;22058;0.000;0.000;2023-03-14T04:30:36;3.75;;;2.00;;
35981;SDS011;22058;0.000;0.000;2023-03-14T04:33:02;5.18;;;2.28;;
35981;SDS011;22058;0.000;0.000;2023-03-14T04:35:31;2.88;;;1.70;;
35981;SDS011;22058;0.000;0.000;2023-03-14T04:37:57;3.72;;;2.10;;
35981;SDS011;22058;0.000;0.000;2023-03-14T04:40:24;4.88;;;2.60;;
35981;SDS011;22058;0.000;0.000;2023-03-14T04:42:51;6.78;;;2.28;;
35981;SDS011;22058;0.000;0.000;2023-03-14T04:45:18;5.50;;;2.80;;
35981;SDS011;22058;0.000;0.000;2023-03-14T04:47:45;2.92;;;1.80;;
35981;SDS011;22058;0.000;0.000;2023-03-14T04:50:11;3.50;;;1.70;;
35981;SDS011;22058;0.000;0.000;2023-03-14T04:52:38;6.78;;;2.28;;
35981;SDS011;22058;0.000;0.000;2023-03-14T04:55:05;5.32;;;2.55;;
35981;SDS011;22058;0.000;0.000;2023-03-14T04:57:32;2.50;;;1.95;;
35981;SDS011;22058;0.000;0.000;2023-03-14T04:59:58;3.45;;;2.00;;
35981;SDS011;22058;0.000;0.000;2023-03-14T05:02:25;2.35;;;1.55;;
35981;SDS011;22058;0.000;0.000;2023-03-14T05:04:51;3.80;;;1.80;;
35981;SDS011;22058;0.000;0.000;2023-03-14T05:07:18;3.55;;;1.90;;
35981;SDS011;22058;0.000;0.000;2023-03-14T05:09:44;2.75;;;1.55;;
35981;SDS011;22058;0.000;0.000;2023-03-14T05:12:10;2.70;;;1.67;;
35981;SDS011;22058;0.000;0.000;2023-03-14T05:14:37;5.00;;;1.77;;
35981;SDS011;22058;0.000;0.000;2023-03-14T05:17:04;5.30;;;2.25;;
35981;SDS011;22058;0.000;0.000;2023-03-14T05:19:31;2.33;;;1.77;;
35981;SDS011;22058;0.000;0.000;2023-03-14T05:21:57;7.45;;;2.05;;
35981;SDS011;22058;0.000;0.000;2023-03-14T05:24:23;3.42;;;1.98;;
35981;SDS011;22058;0.000;0.000;2023-03-14T05:26:50;3.75;;;2.15;;
35981;SDS011;22058;0.000;0.000;2023-03-14T05:29:16;3.72;;;2.25;;
35981;SDS011;22058;0.000;0.000;2023-03-14T05:31:43;3.45;;;1.90;;
35981;SDS011;22058;0.000;0.000;2023-03-14T05:34:10;9.93;;;2.15;;
35981;SDS011;22058;0.000;0.000;2023-03-14T05:36:36;3.58;;;2.58;;
35981;SDS011;22058;0.000;0.000;2023-03-14T05:39:04;2.05;;;1.60;;
35981;SDS011;22058;0.000;0.000;2023-03-14T05:41:30;4.78;;;2.08;;
35981;SDS011;22058;0.000;0.000;2023-03-14T05:43:57;4.80;;;1.83;;
35981;SDS011;22058;0.000;0.000;2023-03-14T05:46:24;4.28;;;1.67;;
35981;SDS011;22058;0.000;0.000;2023-03-14T05:48:50;2.88;;;1.67;;
35981;SDS011;22058;0.000;0.000;2023-03-14T05:51:17;3.05;;;1.98;;
35981;SDS011;22058;0.000;0.000;2023-03-14T05:53:44;3.08;;;1.65;;
35981;SDS011;22058;0.000;0.000;2023-03-14T05:56:10;3.35;;;1.90;;
35981;SDS011;22058;0.000;0.000;2023-03-14T05:58:37;4.30;;;1.73;;
35981;SDS011;22058;0.000;0.000;2023-03-14T06:01:04;3.42;;;1.88;;
35981;SDS011;22058;0.000;0.000;2023-03-14T06:03:31;4.38;;;1.85;;
35981;SDS011;22058;0.000;0.000;2023-03-14T06:05:57;8.10;;;2.55;;
35981;SDS011;22058;0.000;0.000;2023-03-14T06:08:24;4.00;;;2.00;;
35981;SDS011;22058;0.000;0.000;2023-03-14T06:10:51;5.00;;;1.90;;
35981;SDS011;22058;0.000;0.000;2023-03-14T06:13:18;3.22;;;1.75;;
35981;SDS011;22058;0.000;0.000;2023-03-14T06:15:45;4.80;;;1.95;;
35981;SDS011;22058;0.000;0.000;2023-03-14T06:18:12;4.30;;;1.70;;
35981;SDS011;22058;0.000;0.000;2023-03-14T06:20:39;4.10;;;2.20;;
35981;SDS011;22058;0.000;0.000;2023-03-14T06:23:06;3.38;;;1.90;;
35981;SDS011;22058;0.000;0.000;2023-03-14T06:25:33;7.40;;;2.05;;
35981;SDS011;22058;0.000;0.000;2023-03-14T06:28:00;4.78;;;1.63;;
35981;SDS011;22058;0.000;0.000;2023-03-14T06:30:27;5.75;;;1.92;;
35981;SDS011;22058;0.000;0.000;2023-03-14T06:32:54;8.30;;;2.13;;
35981;SDS011;22058;0.000;0.000;2023-03-14T06:35:22;6.15;;;2.08;;
35981;SDS011;22058;0.000;0.000;2023-03-14T06:37:48;6.82;;;2.30;;
35981;SDS011;22058;0.000;0.000;2023-03-14T06:40:15;10.75;;;2.70;;
35981;SDS011;22058;0.000;0.000;2023-03-14T06:42:46;9.48;;;2.22;;
35981;SDS011;22058;0.000;0.000;2023-03-14T06:45:13;7.50;;;1.90;;
35981;SDS011;22058;0.000;0.000;2023-03-14T06:47:40;9.32;;;1.98;;
35981;SDS011;22058;0.000;0.000;2023-03-14T06:50:07;5.05;;;2.10;;
35981;SDS011;22058;0.000;0.000;2023-03-14T06:52:34;10.27;;;1.58;;
35981;SDS011;22058;0.000;0.000;2023-03-14T06:55:00;5.28;;;1.90;;
35981;SDS011;22058;0.000;0.000;2023-03-14T06:57:27;7.18;;;1.58;;
35981;SDS011;22058;0.000;0.000;2023-03-14T06:59:54;4.22;;;1.95;;
35981;SDS011;22058;0.000;0.000;2023-03-14T07:02:21;5.10;;;1.60;;
35981;SDS011;22058;0.000;0.000;2023-03-14T07:04:48;6.93;;;2.10;;
35981;SDS011;22058;0.000;0.000;2023-03-14T07:07:15;3.22;;;1.65;;
35981;SDS011;22058;0.000;0.000;2023-03-14T07:09:41;9.38;;;2.63;;
35981;SDS011;22058;0.000;0.000;2023-03-14T07:12:08;5.18;;;1.70;;
35981;SDS011;22058;0.000;0.000;2023-03-14T07:14:35;3.28;;;1.45;;
35981;SDS011;22058;0.000;0.000;2023-03-14T07:17:02;3.03;;;1.25;;
35981;SDS011;22058;0.000;0.000;2023-03-14T07:19:28;4.72;;;1.90;;
35981;SDS011;22058;0.000;0.000;2023-03-14T07:21:55;8.00;;;1.85;;
35981;SDS011;22058;0.000;0.000;2023-03-14T07:24:22;3.92;;;1.50;;
35981;SDS011;22058;0.000;0.000;2023-03-14T07:26:48;6.75;;;2.15;;
35981;SDS011;22058;0.000;0.000;2023-03-14T07:29:15;3.78;;;1.85;;
35981;SDS011;22058;0.000;0.000;2023-03-14T07:31:42;3.10;;;1.90;;
35981;SDS011;22058;0.000;0.000;2023-03-14T07:34:08;4.70;;;1.55;;
35981;SDS011;22058;0.000;0.000;2023-03-14T07:36:37;8.40;;;1.90;;
35981;SDS011;22058;0.000;0.000;2023-03-14T07:39:03;5.03;;;1.65;;
35981;SDS011;22058;0.000;0.000;2023-03-14T07:41:30;4.50;;;1.67;;
35981;SDS011;22058;0.000;0.000;2023-03-14T07:43:57;2.08;;;1.50;;
35981;SDS011;22058;0.000;0.000;2023-03-14T07:46:23;5.80;;;1.60;;
35981;SDS011;22058;0.000;0.000;2023-03-14T07:48:50;4.18;;;2.03;;
35981;SDS011;22058;0.000;0.000;2023-03-14T07:51:17;6.75;;;2.00;;
35981;SDS011;22058;0.000;0.000;2023-03-14T07:53:44;5.57;;;1.85;;
35981;SDS011;22058;0.000;0.000;2023-03-14T07:56:11;8.07;;;1.35;;
35981;SDS011;22058;0.000;0.000;2023-03-14T07:58:38;5.38;;;1.88;;
35981;SDS011;22058;0.000;0.000;2023-03-14T08:01:05;6.65;;;2.08;;
35981;SDS011;22058;0.000;0.000;2023-03-14T08:03:31;9.57;;;1.90;;
35981;SDS011;22058;0.000;0.000;2023-03-14T08:05:58;5.78;;;1.42;;
35981;SDS011;22058;0.000;0.000;2023-03-14T08:08:24;9.38;;;4.70;;
35981;SDS011;22058;0.000;0.000;2023-03-14T08:10:51;7.35;;;1.60;;
35981;SDS011;22058;0.000;0.000;2023-03-14T08:13:18;6.80;;;2.10;;
35981;SDS011;22058;0.000;0.000;2023-03-14T08:15:49;3.40;;;1.83;;
35981;SDS011;22058;0.000;0.000;2023-03-14T08:18:16;7.68;;;2.10;;
35981;SDS011;22058;0.000;0.000;2023-03-14T08:20:43;8.32;;;1.80;;
35981;SDS011;22058;0.000;0.000;2023-03-14T08:23:10;10.43;;;2.55;;
35981;SDS011;22058;0.000;0.000;2023-03-14T08:25:37;4.45;;;1.73;;
35981;SDS011;22058;0.000;0.000;2023-03-14T08:28:04;12.20;;;1.95;;
35981;SDS011;22058;0.000;0.000;2023-03-14T08:30:31;14.27;;;1.80;;
35981;SDS011;22058;0.000;0.000;2023-03-14T08:32:57;9.00;;;2.50;;
35981;SDS011;22058;0.000;0.000;2023-03-14T08:35:24;12.57;;;1.85;;
35981;SDS011;22058;0.000;0.000;2023-03-14T08:37:51;8.43;;;2.42;;
35981;SDS011;22058;0.000;0.000;2023-03-14T08:40:18;8.80;;;2.25;;
35981;SDS011;22058;0.000;0.000;2023-03-14T08:42:45;10.18;;;2.13;;
35981;SDS011;22058;0.000;0.000;2023-03-14T08:45:12;6.25;;;2.60;;
35981;SDS011;22058;0.000;0.000;2023-03-14T08:47:39;7.55;;;1.90;;
35981;SDS011;22058;0.000;0.000;2023-03-14T08:50:06;8.52;;;1.67;;
35981;SDS011;22058;0.000;0.000;2023-03-14T08:52:33;6.40;;;2.10;;
35981;SDS011;22058;0.000;0.000;2023-03-14T08:55:00;5.78;;;3.10;;
35981;SDS011;22058;0.000;0.000;2023-03-14T08:57:26;5.65;;;2.30;;
35981;SDS011;22058;0.000;0.000;2023-03-14T08:59:53;6.25;;;2.30;;
35981;SDS011;22058;0.000;0.000;2023-03-14T09:02:21;17.98;;;5.43;;
35981;SDS011;22058;0.000;0.000;2023-03-14T09:04:47;4.57;;;1.67;;
35981;SDS011;22058;0.000;0.000;2023-03-14T09:07:14;8.35;;;2.60;;
35981;SDS011;22058;0.000;0.000;2023-03-14T09:09:41;21.75;;;2.85;;
35981;SDS011;22058;0.000;0.000;2023-03-14T09:12:07;6.95;;;1.95;;
35981;SDS011;22058;0.000;0.000;2023-03-14T09:14:34;14.43;;;2.15;;
35981;SDS011;22058;0.000;0.000;2023-03-14T09:17:02;9.13;;;2.17;;
35981;SDS011;22058;0.000;0.000;2023-03-14T09:19:28;9.10;;;1.95;;
35981;SDS011;22058;0.000;0.000;2023-03-14T09:21:55;4.63;;;1.45;;
35981;SDS011;22058;0.000;0.000;2023-03-14T09:24:22;2.00;;;1.70;;
35981;SDS011;22058;0.000;0.000;2023-03-14T09:26:49;4.57;;;1.70;;
35981;SDS011;22058;0.000;0.000;2023-03-14T09:29:15;4.65;;;1.95;;
35981;SDS011;22058;0.000;0.000;2023-03-14T09:31:42;11.73;;;2.45;;
35981;SDS011;22058;0.000;0.000;2023-03-14T09:34:10;4.50;;;2.05;;
35981;SDS011;22058;0.000;0.000;2023-03-14T09:36:37;9.05;;;1.98;;
35981;SDS011;22058;0.000;0.000;2023-03-14T09:39:05;11.77;;;1.88;;
35981;SDS011;22058;0.000;0.000;2023-03-14T09:41:35;20.27;;;2.53;;
35981;SDS011;22058;0.000;0.000;2023-03-14T09:46:32;24.33;;;2.78;;
35981;SDS011;22058;0.000;0.000;2023-03-14T09:49:02;18.15;;;2.97;;
35981;SDS011;22058;0.000;0.000;2023-03-14T09:51:28;33.17;;;3.65;;
35981;SDS011;22058;0.000;0.000;2023-03-14T09:53:57;14.02;;;2.30;;
35981;SDS011;22058;0.000;0.000;2023-03-14T09:56:27;12.55;;;2.15;;
35981;SDS011;22058;0.000;0.000;2023-03-14T09:58:58;22.40;;;3.22;;
35981;SDS011;22058;0.000;0.000;2023-03-14T10:01:27;40.13;;;3.65;;
35981;SDS011;22058;0.000;0.000;2023-03-14T10:03:54;26.58;;;3.53;;
35981;SDS011;22058;0.000;0.000;2023-03-14T10:06:26;17.27;;;3.08;;
35981;SDS011;22058;0.000;0.000;2023-03-14T10:08:53;17.40;;;3.30;;
35981;SDS011;22058;0.000;0.000;2023-03-14T10:11:22;9.80;;;2.85;;
35981;SDS011;22058;0.000;0.000;2023-03-14T10:14:01;23.17;;;2.83;;
35981;SDS011;22058;0.000;0.000;2023-03-14T10:16:30;10.57;;;3.75;;
35981;SDS011;22058;0.000;0.000;2023-03-14T10:19:04;12.48;;;4.03;;
35981;SDS011;22058;0.000;0.000;2023-03-14T10:21:32;25.15;;;3.03;;
35981;SDS011;22058;0.000;0.000;2023-03-14T10:24:18;60.83;;;5.80;;
35981;SDS011;22058;0.000;0.000;2023-03-14T10:26:47;288.65;;;23.17;;
35981;SDS011;22058;0.000;0.000;2023-03-14T10:29:14;259.75;;;22.10;;
35981;SDS011;22058;0.000;0.000;2023-03-14T10:31:54;37.67;;;5.07;;
35981;SDS011;22058;0.000;0.000;2023-03-14T10:34:22;32.42;;;5.45;;
35981;SDS011;22058;0.000;0.000;2023-03-14T10:36:57;12.98;;;2.78;;
35981;SDS011;22058;0.000;0.000;2023-03-14T10:44:40;20.13;;;3.40;;
35981;SDS011;22058;0.000;0.000;2023-03-14T10:47:12;24.52;;;3.05;;
35981;SDS011;22058;0.000;0.000;2023-03-14T10:49:41;10.98;;;2.00;;
35981;SDS011;22058;0.000;0.000;2023-03-14T10:54:40;22.13;;;4.38;;
35981;SDS011;22058;0.000;0.000;2023-03-14T10:57:10;15.27;;;3.17;;
35981;SDS011;22058;0.000;0.000;2023-03-14T10:59:38;17.52;;;2.63;;
35981;SDS011;22058;0.000;0.000;2023-03-14T11:07:39;18.42;;;2.90;;
35981;SDS011;22058;0.000;0.000;2023-03-14T11:10:26;13.65;;;2.53;;
35981;SDS011;22058;0.000;0.000;2023-03-14T11:12:59;13.88;;;2.30;;
35981;SDS011;22058;0.000;0.000;2023-03-14T11:23:17;19.00;;;3.28;;
35981;SDS011;22058;0.000;0.000;2023-03-14T11:28:34;20.02;;;3.80;;
35981;SDS011;22058;0.000;0.000;2023-03-14T11:33:38;23.23;;;3.53;;
35981;SDS011;22058;0.000;0.000;2023-03-14T11:41:00;24.23;;;4.43;;
35981;SDS011;22058;0.000;0.000;2023-03-14T11:43:30;24.23;;;4.30;;
35981;SDS011;22058;0.000;0.000;2023-03-14T11:46:07;24.60;;;3.22;;
35981;SDS011;22058;0.000;0.000;2023-03-14T11:48:37;22.77;;;3.60;;
35981;SDS011;22058;0.000;0.000;2023-03-14T11:51:06;29.90;;;4.38;;
35981;SDS011;22058;0.000;0.000;2023-03-14T11:53:41;27.02;;;4.22;;
35981;SDS011;22058;0.000;0.000;2023-03-14T11:56:11;29.55;;;3.90;;
35981;SDS011;22058;0.000;0.000;2023-03-14T11:58:39;27.92;;;3.45;;
35981;SDS011;22058;0.000;0.000;2023-03-14T12:01:09;23.88;;;4.03;;
35981;SDS011;22058;0.000;0.000;2023-03-14T12:08:53;21.25;;;3.28;;
35981;SDS011;22058;0.000;0.000;2023-03-14T12:11:31;31.05;;;3.55;;
35981;SDS011;22058;0.000;0.000;2023-03-14T12:13:58;25.27;;;3.65;;
35981;SDS011;22058;0.000;0.000;2023-03-14T12:18:51;20.23;;;3.60;;
35981;SDS011;22058;0.000;0.000;2023-03-14T12:21:18;18.75;;;4.07;;
35981;SDS011;22058;0.000;0.000;2023-03-14T12:28:37;18.42;;;4.43;;
35981;SDS011;22058;0.000;0.000;2023-03-14T12:31:50;15.45;;;3.97;;
35981;SDS011;22058;0.000;0.000;2023-03-14T12:34:00;13.77;;;3.67;;
35981;SDS011;22058;0.000;0.000;2023-03-14T12:37:04;17.75;;;4.20;;
35981;SDS011;22058;0.000;0.000;2023-03-14T12:39:40;20.30;;;4.22;;
35981;SDS011;22058;0.000;0.000;2023-03-14T12:49:47;17.63;;;3.78;;
35981;SDS011;22058;0.000;0.000;2023-03-14T12:52:30;21.42;;;3.40;;
35981;SDS011;22058;0.000;0.000;2023-03-14T12:55:03;14.73;;;3.80;;
35981;SDS011;22058;0.000;0.000;2023-03-14T13:02:44;20.83;;;3.53;;
35981;SDS011;22058;0.000;0.000;2023-03-14T13:05:19;15.52;;;3.88;;
35981;SDS011;22058;0.000;0.000;2023-03-14T13:10:22;11.55;;;3.60;;
35981;SDS011;22058;0.000;0.000;2023-03-14T13:15:28;28.20;;;4.15;;
35981;SDS011;22058;0.000;0.000;2023-03-14T13:17:59;26.25;;;3.53;;
35981;SDS011;22058;0.000;0.000;2023-03-14T13:20:30;26.58;;;4.32;;
35981;SDS011;22058;0.000;0.000;2023-03-14T13:25:22;12.05;;;2.70;;
35981;SDS011;22058;0.000;0.000;2023-03-14T13:27:51;13.88;;;3.60;;
35981;SDS011;22058;0.000;0.000;2023-03-14T13:30:22;20.17;;;4.82;;
35981;SDS011;22058;0.000;0.000;2023-03-14T13:32:49;21.40;;;6.72;;
35981;SDS011;22058;0.000;0.000;2023-03-14T13:35:18;24.33;;;3.30;;
35981;SDS011;22058;0.000;0.000;2023-03-14T13:37:44;16.85;;;4.05;;
35981;SDS011;22058;0.000;0.000;2023-03-14T13:40:23;19.08;;;2.72;;
35981;SDS011;22058;0.000;0.000;2023-03-14T13:42:58;21.20;;;4.18;;
35981;SDS011;22058;0.000;0.000;2023-03-14T13:45:25;17.38;;;3.97;;
35981;SDS011;22058;0.000;0.000;2023-03-14T13:47:51;27.15;;;4.68;;
35981;SDS011;22058;0.000;0.000;2023-03-14T13:50:17;13.85;;;3.88;;
35981;SDS011;22058;0.000;0.000;2023-03-14T13:52:44;12.48;;;3.42;;
35981;SDS011;22058;0.000;0.000;2023-03-14T13:55:16;18.92;;;4.55;;
35981;SDS011;22058;0.000;0.000;2023-03-14T13:57:51;18.80;;;2.97;;
35981;SDS011;22058;0.000;0.000;2023-03-14T14:00:23;12.00;;;3.45;;
35981;SDS011;22058;0.000;0.000;2023-03-14T14:02:58;37.72;;;5.18;;
35981;SDS011;22058;0.000;0.000;2023-03-14T14:05:26;18.88;;;3.45;;
35981;SDS011;22058;0.000;0.000;2023-03-14T14:07:52;22.73;;;4.07;;
35981;SDS011;22058;0.000;0.000;2023-03-14T14:10:19;18.35;;;3.67;;
35981;SDS011;22058;0.000;0.000;2023-03-14T14:12:47;28.13;;;4.00;;
35981;SDS011;22058;0.000;0.000;2023-03-14T14:15:22;20.25;;;3.90;;
35981;SDS011;22058;0.000;0.000;2023-03-14T14:17:52;17.00;;;3.70;;
35981;SDS011;22058;0.000;0.000;2023-03-14T14:22:56;9.55;;;3.00;;
35981;SDS011;22058;0.000;0.000;2023-03-14T14:25:22;19.52;;;4.88;;
35981;SDS011;22058;0.000;0.000;2023-03-14T14:27:49;15.40;;;3.47;;
35981;SDS011;22058;0.000;0.000;2023-03-14T14:32:48;19.42;;;3.58;;
35981;SDS011;22058;0.000;0.000;2023-03-14T14:35:26;14.07;;;5.75;;
35981;SDS011;22058;0.000;0.000;2023-03-14T14:37:52;14.98;;;2.85;;
35981;SDS011;22058;0.000;0.000;2023-03-14T14:40:20;18.52;;;3.40;;
35981;SDS011;22058;0.000;0.000;2023-03-14T14:42:47;9.23;;;3.08;;
35981;SDS011;22058;0.000;0.000;2023-03-14T14:45:17;23.77;;;5.25;;
35981;SDS011;22058;0.000;0.000;2023-03-14T14:47:51;13.15;;;2.67;;
35981;SDS011;22058;0.000;0.000;2023-03-14T14:50:25;14.93;;;3.25;;
35981;SDS011;22058;0.000;0.000;2023-03-14T14:52:55;17.13;;;3.30;;
35981;SDS011;22058;0.000;0.000;2023-03-14T14:55:22;10.52;;;2.75;;
35981;SDS011;22058;0.000;0.000;2023-03-14T14:57:52;16.10;;;3.13;;
35981;SDS011;22058;0.000;0.000;2023-03-14T15:00:20;11.77;;;3.37;;
35981;SDS011;22058;0.000;0.000;2023-03-14T15:02:47;18.30;;;3.50;;
35981;SDS011;22058;0.000;0.000;2023-03-14T15:07:40;10.98;;;4.35;;
35981;SDS011;22058;0.000;0.000;2023-03-14T15:10:09;13.63;;;2.83;;
35981;SDS011;22058;0.000;0.000;2023-03-14T15:12:35;11.00;;;2.78;;
35981;SDS011;22058;0.000;0.000;2023-03-14T15:15:01;17.20;;;3.50;;
35981;SDS011;22058;0.000;0.000;2023-03-14T15:17:27;13.20;;;3.63;;
35981;SDS011;22058;0.000;0.000;2023-03-14T15:19:54;11.60;;;2.95;;
35981;SDS011;22058;0.000;0.000;2023-03-14T15:22:22;16.55;;;2.80;;
35981;SDS011;22058;0.000;0.000;2023-03-14T15:24:49;10.55;;;2.85;;
35981;SDS011;22058;0.000;0.000;2023-03-14T15:27:16;42.20;;;5.47;;
35981;SDS011;22058;0.000;0.000;2023-03-14T15:29:43;14.63;;;4.05;;
35981;SDS011;22058;0.000;0.000;2023-03-14T15:32:11;19.27;;;4.22;;
35981;SDS011;22058;0.000;0.000;2023-03-14T15:34:37;17.50;;;3.47;;
35981;SDS011;22058;0.000;0.000;2023-03-14T15:37:03;12.65;;;3.70;;
35981;SDS011;22058;0.000;0.000;2023-03-14T15:39:34;14.45;;;2.83;;
35981;SDS011;22058;0.000;0.000;2023-03-14T15:42:01;19.95;;;3.70;;
35981;SDS011;22058;0.000;0.000;2023-03-14T15:44:27;9.90;;;2.85;;
35981;SDS011;22058;0.000;0.000;2023-03-14T15:46:53;16.85;;;3.28;;
35981;SDS011;22058;0.000;0.000;2023-03-14T15:49:19;11.43;;;3.92;;
35981;SDS011;22058;0.000;0.000;2023-03-14T15:51:45;8.52;;;2.67;;
35981;SDS011;22058;0.000;0.000;2023-03-14T15:54:11;16.20;;;5.70;;
35981;SDS011;22058;0.000;0.000;2023-03-14T15:56:38;13.20;;;3.05;;
35981;SDS011;22058;0.000;0.000;2023-03-14T15:59:04;14.27;;;2.35;;
35981;SDS011;22058;0.000;0.000;2023-03-14T16:01:30;10.98;;;2.83;;
35981;SDS011;22058;0.000;0.000;2023-03-14T16:03:56;9.60;;;2.53;;
35981;SDS011;22058;0.000;0.000;2023-03-14T16:06:22;10.65;;;3.30;;
35981;SDS011;22058;0.000;0.000;2023-03-14T16:08:48;14.13;;;3.58;;
35981;SDS011;22058;0.000;0.000;2023-03-14T16:11:14;18.48;;;5.38;;
35981;SDS011;22058;0.000;0.000;2023-03-14T16:13:42;15.38;;;3.30;;
35981;SDS011;22058;0.000;0.000;2023-03-14T16:16:09;14.88;;;3.90;;